LRBM - BAIA MARE / BAIA MARE

Compiled: 17:56:16 on 22/07/2018

Latest METAR/SPECI Reports

METAR LRBM 221730Z AUTO 30004KT 270V350 9999 FEW015/// SCT190/// 25/17 Q1008=

Previous reports

METAR LRBM 221700Z AUTO 24003KT 9999 FEW018/// SCT200/// 26/17 Q1009=
METAR LRBM 221630Z AUTO 28005KT 9999 FEW010/// SCT190/// 27/15 Q1008=
METAR LRBM 221600Z AUTO 27007KT 9999 FEW015/// SCT190/// 27/15 Q1008=
METAR LRBM 221530Z AUTO 29005KT 250V330 9999 FEW017/// SCT230/// 28/16 Q1008=

Latest TAF report

TAF AMD LRBM 211717Z 2117/2124 CNL=

Valid WARNINGS

No valid warnings for LRBM